Terminal Aerodrome Forecast
Issued by NWS

Home | Current Version | Previous Version | Text Only | Print | Product List | Glossary On
Versions: 1 2 3 4 5 6 7 8 9 10 11 12 13 14 15 16 17 18 19 20 21 22 23
000
FTUS42 KMHX 251400 AAC
TAFPGV
TAF AMD
KPGV 251427Z 2514/2612 05005KT P6SM SCT015
     FM251500 06005KT P6SM SCT050
     FM252300 10005KT P6SM SCT250
     FM260600 00000KT 2SM BR BKN003
      AMD LTD TO CLD VIS AND WIND=

USA.gov is the U.S. government's official web portal to all federal, state and local government web resources and services.